Disclaimer

Please do not use the information listed here in-flight or in-navigation, as they are not provided to us by the airports but are provided by volunteers, so they might be outdated.

Search


Regions


Airport information page

Radio informations:
Tower (TWR) - 118.75 MHz
TAICHUNG APP - 120.4 MHz

Latitude: N/A
Longitude: N/A
Elevation: N/A
Operating hours: N/A
Operating agency: N/A
Timezone: N/A
Fuel: N/A

Recent METARs:
RCMQ 201500Z 19002KT 6000 FEW010 BKN050 22/19 Q1018 RMK A3006
RCMQ 201600Z 23002KT 6000 FEW010 BKN050 22/19 Q1018 RMK A3006
RCMQ 201600Z 23002KT 6000 FEW010 BKN050 22/19 Q1018 RMK A3006

Airport on the map: